Time;durP1;ratioP1;P1;durP2;ratioP2;P2;SDS_P1;SDS_P2;PMS_P1;PMS_P2;Temp;Humidity;BMP_temperature;BMP_pressure;BME280_temperature;BME280_humidity;BME280_pressure;Samples;Min_cycle;Max_cycle;Signal;HPM_P1;HPM_P2
2023/03/19 00:02:48;;;;;;;3.45;1.95;;;;;;;;;;10207948;29;20503;-87
2023/03/19 00:07:53;;;;;;;2.42;1.45;;;;;;;;;;10170700;29;20127;-87
2023/03/19 00:12:57;;;;;;;5.25;2.17;;;;;;;;;;10175300;29;20063;-87
2023/03/19 00:18:01;;;;;;;2.83;1.73;;;;;;;;;;10233326;29;20450;-87
2023/03/19 00:23:06;;;;;;;4.30;2.00;;;;;;;;;;10248847;29;20466;-87
2023/03/19 00:28:10;;;;;;;2.25;1.60;;;;;;;;;;10229236;29;20111;-87
2023/03/19 00:33:14;;;;;;;2.53;1.80;;;;;;;;;;10232177;29;20054;-87
2023/03/19 00:38:20;;;;;;;2.67;1.90;;;;;;;;;;10223811;29;20522;-87
2023/03/19 00:43:23;;;;;;;4.00;2.17;;;;;;;;;;10204219;29;20095;-87
2023/03/19 00:48:27;;;;;;;4.30;2.03;;;;;;;;;;10221848;29;20055;-86
2023/03/19 00:53:33;;;;;;;8.32;1.85;;;;;;;;;;10200275;29;20046;-87
2023/03/19 00:58:37;;;;;;;1.57;1.40;;;;;;;;;;10173485;29;20048;-87
2023/03/19 01:03:41;;;;;;;3.05;1.55;;;;;;;;;;10168664;29;20056;-87
2023/03/19 01:08:46;;;;;;;1.85;1.40;;;;;;;;;;10191870;29;20052;-87
2023/03/19 01:13:50;;;;;;;2.40;1.67;;;;;;;;;;10162312;29;20393;-88
2023/03/19 01:18:54;;;;;;;1.55;1.40;;;;;;;;;;10198821;29;20055;-87
2023/03/19 01:23:59;;;;;;;2.35;1.50;;;;;;;;;;10180544;29;20048;-87
2023/03/19 01:29:04;;;;;;;2.55;1.70;;;;;;;;;;10175303;29;20047;-87
2023/03/19 01:34:07;;;;;;;2.22;1.30;;;;;;;;;;10195700;29;20047;-87
2023/03/19 01:39:25;;;;;;;3.92;1.25;;;;;;;;;;10199866;29;20051;-87
2023/03/19 01:44:32;;;;;;;1.92;1.27;;;;;;;;;;10199929;29;20112;-88
2023/03/19 01:49:56;;;;;;;2.60;1.08;;;;;;;;;;10256203;29;20711;-87
2023/03/19 01:55:06;;;;;;;3.08;1.30;;;;;;;;;;10226765;28;20058;-87
2023/03/19 02:00:26;;;;;;;2.03;1.35;;;;;;;;;;10234059;29;20518;-87
2023/03/19 02:05:31;;;;;;;3.90;1.60;;;;;;;;;;10215475;29;20044;-87
2023/03/19 02:10:42;;;;;;;3.25;1.55;;;;;;;;;;10182653;29;20646;-87
2023/03/19 02:15:45;;;;;;;;;;;;;;;;;;10174676;29;20056;-87
2023/03/19 02:20:55;;;;;;;3.30;1.95;;;;;;;;;;10191698;29;20401;-87
2023/03/19 02:26:05;;;;;;;3.25;1.90;;;;;;;;;;10197714;29;20036;-88
2023/03/19 02:31:09;;;;;;;4.18;2.45;;;;;;;;;;10197939;29;20040;-86
2023/03/19 02:36:18;;;;;;;3.53;1.95;;;;;;;;;;10174193;29;20059;-87
2023/03/19 02:41:23;;;;;;;3.53;1.73;;;;;;;;;;10178058;29;20050;-87
2023/03/19 02:46:27;;;;;;;2.33;1.40;;;;;;;;;;10197010;29;20047;-87
2023/03/19 02:51:31;;;;;;;3.47;1.27;;;;;;;;;;10170107;29;20147;-86
2023/03/19 02:56:36;;;;;;;1.67;1.23;;;;;;;;;;10188963;29;20052;-87
2023/03/19 03:01:40;;;;;;;1.95;1.20;;;;;;;;;;10156882;29;20536;-87
2023/03/19 03:06:45;;;;;;;2.10;1.20;;;;;;;;;;10180592;29;20040;-86
2023/03/19 03:11:51;;;;;;;1.20;0.90;;;;;;;;;;10196428;29;20044;-87
2023/03/19 03:16:57;;;;;;;1.23;0.82;;;;;;;;;;10184049;29;20107;-87
2023/03/19 03:22:01;;;;;;;1.35;1.00;;;;;;;;;;10192964;29;20044;-87
2023/03/19 03:27:07;;;;;;;2.40;1.20;;;;;;;;;;10178315;29;20055;-88
2023/03/19 03:32:10;;;;;;;2.97;1.23;;;;;;;;;;10206936;29;20052;-87
2023/03/19 03:37:14;;;;;;;1.63;1.00;;;;;;;;;;10192337;29;20063;-87
2023/03/19 03:42:20;;;;;;;1.88;1.02;;;;;;;;;;10186233;29;20389;-87
2023/03/19 03:47:24;;;;;;;1.55;0.80;;;;;;;;;;10214536;29;20049;-87
2023/03/19 03:52:30;;;;;;;1.60;1.10;;;;;;;;;;10193986;29;20039;-87
2023/03/19 03:57:35;;;;;;;1.17;0.73;;;;;;;;;;10194696;29;20075;-87
2023/03/19 04:02:39;;;;;;;1.10;0.80;;;;;;;;;;10170580;29;20411;-87
2023/03/19 04:07:44;;;;;;;1.63;0.70;;;;;;;;;;10154197;29;20099;-87
2023/03/19 04:12:50;;;;;;;1.70;0.90;;;;;;;;;;10154654;29;20064;-87
2023/03/19 04:17:54;;;;;;;0.95;0.77;;;;;;;;;;10169430;29;20424;-87
2023/03/19 04:22:58;;;;;;;1.85;0.82;;;;;;;;;;10179884;29;20135;-86
2023/03/19 04:28:03;;;;;;;2.10;1.00;;;;;;;;;;10193683;29;20550;-87
2023/03/19 04:33:07;;;;;;;1.40;1.00;;;;;;;;;;10189920;29;20044;-87
2023/03/19 04:38:11;;;;;;;2.35;1.17;;;;;;;;;;10154023;29;20520;-86
2023/03/19 04:43:16;;;;;;;1.23;1.00;;;;;;;;;;10185940;29;20048;-87
2023/03/19 04:48:20;;;;;;;3.50;1.23;;;;;;;;;;10152419;29;20516;-87
2023/03/19 04:53:27;;;;;;;1.15;0.88;;;;;;;;;;10183963;29;20044;-87
2023/03/19 04:58:32;;;;;;;1.27;1.00;;;;;;;;;;10168966;29;20048;-86
2023/03/19 05:03:38;;;;;;;2.13;1.00;;;;;;;;;;10159207;29;20527;-86
2023/03/19 05:08:42;;;;;;;1.75;1.13;;;;;;;;;;10168529;29;20041;-87
2023/03/19 05:13:48;;;;;;;1.52;1.38;;;;;;;;;;10211111;29;20427;-87
2023/03/19 05:18:52;;;;;;;1.40;1.10;;;;;;;;;;10213577;29;20103;-87
2023/03/19 05:23:56;;;;;;;1.55;1.10;;;;;;;;;;10216732;28;20687;-86
2023/03/19 05:29:02;;;;;;;1.23;0.90;;;;;;;;;;10233600;28;20039;-86
2023/03/19 05:34:18;;;;;;;1.27;0.90;;;;;;;;;;10237127;28;20040;-87
2023/03/19 05:39:23;;;;;;;0.85;0.65;;;;;;;;;;10236471;29;20071;-87
2023/03/19 05:44:28;;;;;;;1.65;0.82;;;;;;;;;;10189850;29;20091;-86
2023/03/19 05:49:32;;;;;;;1.17;0.60;;;;;;;;;;10139973;29;1095673;-87
2023/03/19 05:54:36;;;;;;;0.52;0.50;;;;;;;;;;10222483;29;20450;-86
2023/03/19 05:59:49;;;;;;;1.02;0.60;;;;;;;;;;10239946;29;20055;-86
2023/03/19 06:05:15;;;;;;;0.85;0.77;;;;;;;;;;10256338;28;20047;-87
2023/03/19 06:10:19;;;;;;;3.67;0.70;;;;;;;;;;10238275;29;20039;-87
2023/03/19 06:15:29;;;;;;;0.63;0.52;;;;;;;;;;10238215;29;20047;-86
2023/03/19 06:20:46;;;;;;;0.80;0.75;;;;;;;;;;10237366;29;20418;-87
2023/03/19 06:25:52;;;;;;;2.35;0.90;;;;;;;;;;10236952;29;20051;-87
2023/03/19 06:31:02;;;;;;;1.88;0.70;;;;;;;;;;10234018;29;20114;-87
2023/03/19 06:36:24;;;;;;;1.98;0.80;;;;;;;;;;10214473;29;20043;-87
2023/03/19 06:41:29;;;;;;;1.05;0.65;;;;;;;;;;10194233;29;20052;-88
2023/03/19 06:46:43;;;;;;;2.30;0.93;;;;;;;;;;10157483;29;20139;-88
2023/03/19 06:51:46;;;;;;;1.17;0.73;;;;;;;;;;10157085;29;20044;-87
2023/03/19 06:56:50;;;;;;;1.42;0.90;;;;;;;;;;10157536;29;20127;-87
2023/03/19 07:01:58;;;;;;;0.88;0.70;;;;;;;;;;10175047;29;20051;-87
2023/03/19 07:07:04;;;;;;;2.28;0.60;;;;;;;;;;10201100;29;20091;-89
2023/03/19 07:12:09;;;;;;;2.50;0.52;;;;;;;;;;10199756;29;20087;-87
2023/03/19 07:17:14;;;;;;;0.88;0.63;;;;;;;;;;10174249;29;20041;-87
2023/03/19 07:22:19;;;;;;;0.85;0.73;;;;;;;;;;10172894;29;20527;-86
2023/03/19 07:27:23;;;;;;;0.82;0.43;;;;;;;;;;10197236;29;20048;-88
2023/03/19 07:32:28;;;;;;;1.13;0.70;;;;;;;;;;10192897;28;20055;-89
2023/03/19 07:37:32;;;;;;;1.65;0.95;;;;;;;;;;10229754;29;20389;-88
2023/03/19 07:42:37;;;;;;;1.88;1.30;;;;;;;;;;10174235;29;20048;-89
2023/03/19 07:47:42;;;;;;;2.13;1.25;;;;;;;;;;10210557;28;20047;-87
2023/03/19 07:52:46;;;;;;;0.93;0.82;;;;;;;;;;10174839;29;20071;-90
2023/03/19 07:57:50;;;;;;;1.38;0.90;;;;;;;;;;10207802;29;20055;-89
2023/03/19 08:02:55;;;;;;;0.98;0.77;;;;;;;;;;10198347;29;20047;-89
2023/03/19 08:07:59;;;;;;;1.10;0.55;;;;;;;;;;10174665;29;20052;-89
2023/03/19 08:13:03;;;;;;;1.13;0.60;;;;;;;;;;10172754;29;20044;-87
2023/03/19 08:18:08;;;;;;;0.73;0.60;;;;;;;;;;10192426;29;20059;-89
2023/03/19 08:23:15;;;;;;;0.65;0.45;;;;;;;;;;10211132;29;20047;-89
2023/03/19 08:28:24;;;;;;;1.85;0.70;;;;;;;;;;10183986;29;20044;-89
2023/03/19 08:33:31;;;;;;;0.80;0.60;;;;;;;;;;10222513;29;20106;-90
2023/03/19 08:38:35;;;;;;;0.50;0.40;;;;;;;;;;10222528;29;20126;-90
2023/03/19 08:43:40;;;;;;;2.22;0.60;;;;;;;;;;10191959;29;20050;-91
2023/03/19 08:48:46;;;;;;;1.10;0.50;;;;;;;;;;10187689;29;20044;-91
2023/03/19 08:54:27;;;;;;;0.70;0.50;;;;;;;;;;10210067;29;20043;-90
2023/03/19 08:59:32;;;;;;;1.02;0.30;;;;;;;;;;10243974;28;20051;-90
2023/03/19 09:04:41;;;;;;;0.40;0.40;;;;;;;;;;10185936;29;20050;-91
2023/03/19 09:09:48;;;;;;;0.47;0.38;;;;;;;;;;10182629;29;20047;-90
2023/03/19 09:14:52;;;;;;;1.45;0.30;;;;;;;;;;10217039;29;20515;-90
2023/03/19 09:19:58;;;;;;;0.30;0.25;;;;;;;;;;10175777;29;20056;-90
2023/03/19 09:25:02;;;;;;;0.60;0.27;;;;;;;;;;10188603;29;20048;-88
2023/03/19 09:30:09;;;;;;;1.08;0.63;;;;;;;;;;10196424;29;20131;-87
2023/03/19 09:35:15;;;;;;;0.60;0.50;;;;;;;;;;10215381;29;20131;-90
2023/03/19 09:40:24;;;;;;;0.47;0.40;;;;;;;;;;10179327;29;20043;-88
2023/03/19 09:45:29;;;;;;;0.45;0.45;;;;;;;;;;10177488;29;20369;-89
2023/03/19 09:50:37;;;;;;;0.47;0.40;;;;;;;;;;10178805;29;20043;-88
2023/03/19 09:55:44;;;;;;;0.70;0.50;;;;;;;;;;10188151;29;20411;-88
2023/03/19 10:00:52;;;;;;;0.38;0.30;;;;;;;;;;10171398;29;20058;-88
2023/03/19 10:06:09;;;;;;;0.35;0.20;;;;;;;;;;10181160;29;20043;-89
2023/03/19 10:11:29;;;;;;;1.48;0.60;;;;;;;;;;10190677;29;20036;-88
2023/03/19 10:16:34;;;;;;;0.63;0.30;;;;;;;;;;10193199;29;20451;-89
2023/03/19 10:21:43;;;;;;;0.70;0.32;;;;;;;;;;10170057;29;20062;-87
2023/03/19 10:26:48;;;;;;;0.20;0.20;;;;;;;;;;10201171;29;20625;-88
2023/03/19 10:31:58;;;;;;;0.82;0.30;;;;;;;;;;10177815;29;20070;-89
2023/03/19 10:37:05;;;;;;;0.35;0.30;;;;;;;;;;10205099;29;20091;-87
2023/03/19 10:42:26;;;;;;;0.57;0.30;;;;;;;;;;10190080;29;20107;-89
2023/03/19 10:47:34;;;;;;;0.50;0.40;;;;;;;;;;10206528;29;20114;-87
2023/03/19 10:52:42;;;;;;;0.68;0.47;;;;;;;;;;10198732;29;20511;-88
2023/03/19 10:57:49;;;;;;;1.02;0.50;;;;;;;;;;10193247;29;20328;-89
2023/03/19 11:02:55;;;;;;;0.73;0.38;;;;;;;;;;10193607;29;20051;-88
2023/03/19 11:08:01;;;;;;;1.10;0.37;;;;;;;;;;10178974;29;20052;-88
2023/03/19 11:13:07;;;;;;;0.40;0.40;;;;;;;;;;10192730;29;20291;-87
2023/03/19 11:18:20;;;;;;;0.73;0.30;;;;;;;;;;10197976;29;20048;-88
2023/03/19 11:23:28;;;;;;;0.50;0.40;;;;;;;;;;10200675;29;20119;-89
2023/03/19 11:28:32;;;;;;;0.60;0.47;;;;;;;;;;10171740;29;20044;-89
2023/03/19 11:33:49;;;;;;;0.40;0.40;;;;;;;;;;10188632;29;20043;-89
2023/03/19 11:39:06;;;;;;;;;;;;;;;;;;10167991;29;20036;-89
2023/03/19 11:44:18;;;;;;;1.00;0.52;;;;;;;;;;10204362;29;20489;-89
2023/03/19 11:49:42;;;;;;;0.47;0.47;;;;;;;;;;10197871;29;20043;-89
2023/03/19 11:55:03;;;;;;;1.00;0.50;;;;;;;;;;10188474;29;20067;-89
2023/03/19 12:00:22;;;;;;;0.65;0.47;;;;;;;;;;10178633;29;20050;-89
2023/03/19 12:05:33;;;;;;;1.75;0.30;;;;;;;;;;10201096;29;20507;-90
2023/03/19 12:10:49;;;;;;;0.40;0.30;;;;;;;;;;10203536;29;20095;-89
2023/03/19 12:16:00;;;;;;;0.98;0.50;;;;;;;;;;10180928;29;20055;-90
2023/03/19 12:21:11;;;;;;;0.40;0.20;;;;;;;;;;10192668;29;20079;-89
2023/03/19 12:26:23;;;;;;;0.95;0.43;;;;;;;;;;10184329;29;20111;-89
2023/03/19 12:32:06;;;;;;;0.77;0.52;;;;;;;;;;10192952;29;20059;-87
2023/03/19 12:37:20;;;;;;;1.13;0.38;;;;;;;;;;10183266;29;20047;-89
2023/03/19 12:42:31;;;;;;;0.40;0.40;;;;;;;;;;10191967;29;20047;-89
2023/03/19 12:47:39;;;;;;;1.30;0.40;;;;;;;;;;10182691;29;20047;-88
2023/03/19 12:52:45;;;;;;;1.08;0.55;;;;;;;;;;10202715;29;20066;-89
2023/03/19 12:57:53;;;;;;;0.30;0.30;;;;;;;;;;10211583;29;20419;-89
2023/03/19 13:03:05;;;;;;;1.45;0.50;;;;;;;;;;10183801;29;20079;-89
2023/03/19 13:08:15;;;;;;;1.70;0.82;;;;;;;;;;10202139;29;20051;-89
2023/03/19 13:13:37;;;;;;;0.40;0.40;;;;;;;;;;10181625;29;20040;-90
2023/03/19 13:18:49;;;;;;;0.40;0.40;;;;;;;;;;10246035;23;20048;-86
2023/03/19 13:24:02;;;;;;;0.50;0.35;;;;;;;;;;10169167;29;20043;-86
2023/03/19 13:29:16;;;;;;;0.77;0.28;;;;;;;;;;10160773;29;20050;-87
2023/03/19 13:34:25;;;;;;;0.30;0.20;;;;;;;;;;10157573;29;20338;-85
2023/03/19 13:39:31;;;;;;;0.25;0.20;;;;;;;;;;10170082;29;20676;-85
2023/03/19 13:44:39;;;;;;;;;;;;;;;;;;10188014;29;20107;-86
2023/03/19 13:50:04;;;;;;;0.25;0.20;;;;;;;;;;10162894;29;20408;-86
2023/03/19 13:55:33;;;;;;;0.32;0.30;;;;;;;;;;10184226;29;20063;-85
2023/03/19 14:01:00;;;;;;;0.22;0.22;;;;;;;;;;10149329;29;20123;-85
2023/03/19 14:06:04;;;;;;;0.28;0.28;;;;;;;;;;10153076;29;20051;-85
2023/03/19 14:11:08;;;;;;;0.22;0.20;;;;;;;;;;10154989;29;20497;-85
2023/03/19 14:16:17;;;;;;;0.28;0.17;;;;;;;;;;10170027;29;20051;-88
2023/03/19 14:21:33;;;;;;;0.15;0.15;;;;;;;;;;10158150;29;20522;-85
2023/03/19 14:26:44;;;;;;;0.75;0.30;;;;;;;;;;10158406;29;20055;-85
2023/03/19 14:31:50;;;;;;;1.50;0.38;;;;;;;;;;10158863;29;20055;-84
2023/03/19 14:37:01;;;;;;;1.75;0.52;;;;;;;;;;10153456;29;20047;-85
2023/03/19 14:42:08;;;;;;;0.40;0.30;;;;;;;;;;10167408;29;20052;-86
2023/03/19 14:47:47;;;;;;;0.85;0.30;;;;;;;;;;10931605;23;20086;-83
2023/03/19 14:52:57;;;;;;;0.60;0.43;;;;;;;;;;10113248;28;20052;-84
2023/03/19 14:58:02;;;;;;;0.60;0.30;;;;;;;;;;10109017;29;20311;-86
2023/03/19 15:03:19;;;;;;;0.30;0.30;;;;;;;;;;10124687;29;20676;-85
2023/03/19 15:08:25;;;;;;;0.40;0.40;;;;;;;;;;10128809;29;20408;-82
2023/03/19 15:13:39;;;;;;;0.40;0.40;;;;;;;;;;10119349;29;20051;-82
2023/03/19 15:18:44;;;;;;;0.40;0.25;;;;;;;;;;10120728;29;20056;-82
2023/03/19 15:23:48;;;;;;;0.35;0.25;;;;;;;;;;10117048;29;20052;-82
2023/03/19 15:28:52;;;;;;;1.55;0.20;;;;;;;;;;10111484;29;20129;-84
2023/03/19 15:33:58;;;;;;;0.40;0.35;;;;;;;;;;10137635;29;20056;-84
2023/03/19 15:39:06;;;;;;;1.63;0.25;;;;;;;;;;10129760;29;20112;-85
2023/03/19 15:44:14;;;;;;;0.30;0.30;;;;;;;;;;10116854;29;20124;-84
2023/03/19 15:49:24;;;;;;;1.85;0.30;;;;;;;;;;10113812;29;20048;-84
2023/03/19 15:54:28;;;;;;;0.65;0.30;;;;;;;;;;10116903;29;20428;-86
2023/03/19 15:59:33;;;;;;;0.88;0.40;;;;;;;;;;10102091;29;20044;-86
2023/03/19 16:04:38;;;;;;;0.20;0.20;;;;;;;;;;10104607;29;20041;-83
2023/03/19 16:10:41;;;;;;;0.20;0.20;;;;;;;;;;10106227;29;20402;-83
2023/03/19 16:15:47;;;;;;;0.20;0.20;;;;;;;;;;10119975;29;20056;-86
2023/03/19 16:20:59;;;;;;;;;;;;;;;;;;10099037;29;20135;-85
2023/03/19 16:26:21;;;;;;;0.22;0.22;;;;;;;;;;10105774;29;19923;-86
2023/03/19 16:31:28;;;;;;;0.30;0.30;;;;;;;;;;10110546;29;20052;-84
2023/03/19 16:36:33;;;;;;;0.30;0.30;;;;;;;;;;10117088;29;20053;-83
2023/03/19 16:41:37;;;;;;;0.28;0.25;;;;;;;;;;10129207;29;20036;-84
2023/03/19 16:46:41;;;;;;;0.85;0.20;;;;;;;;;;10107818;29;20044;-85
2023/03/19 16:51:45;;;;;;;0.20;0.20;;;;;;;;;;10126687;29;20566;-83
2023/03/19 16:56:49;;;;;;;0.52;0.20;;;;;;;;;;10160716;29;20044;-83
2023/03/19 17:01:52;;;;;;;2.05;0.40;;;;;;;;;;10155854;29;20063;-85
2023/03/19 17:06:57;;;;;;;0.30;0.30;;;;;;;;;;10138868;29;20199;-85
2023/03/19 17:12:02;;;;;;;0.50;0.40;;;;;;;;;;10134653;29;20052;-85
2023/03/19 17:17:17;;;;;;;0.80;0.57;;;;;;;;;;10149753;29;20047;-85
2023/03/19 17:22:26;;;;;;;0.70;0.47;;;;;;;;;;10132155;29;20055;-83
2023/03/19 17:27:30;;;;;;;0.40;0.40;;;;;;;;;;10141053;29;20924;-84
2023/03/19 17:32:37;;;;;;;0.70;0.60;;;;;;;;;;10156530;29;20068;-86
2023/03/19 17:37:43;;;;;;;0.68;0.40;;;;;;;;;;10140722;29;20044;-84
2023/03/19 17:42:47;;;;;;;0.50;0.50;;;;;;;;;;10170125;29;20051;-85
2023/03/19 17:47:55;;;;;;;1.95;0.60;;;;;;;;;;10166480;29;20058;-87
2023/03/19 17:53:00;;;;;;;0.50;0.50;;;;;;;;;;10173671;29;20087;-83
2023/03/19 17:58:05;;;;;;;0.85;0.70;;;;;;;;;;10157424;29;20620;-81
2023/03/19 18:03:13;;;;;;;0.50;0.50;;;;;;;;;;10169041;29;20052;-81
2023/03/19 18:08:21;;;;;;;1.15;0.77;;;;;;;;;;10148922;29;20055;-82
2023/03/19 18:13:24;;;;;;;1.83;0.80;;;;;;;;;;10156647;29;20079;-82
2023/03/19 18:18:28;;;;;;;2.50;1.50;;;;;;;;;;10147187;29;20048;-82
2023/03/19 18:23:33;;;;;;;1.95;1.40;;;;;;;;;;10166058;29;20051;-82
2023/03/19 18:28:36;;;;;;;3.30;1.67;;;;;;;;;;10132014;29;20060;-83
2023/03/19 18:33:40;;;;;;;3.08;1.55;;;;;;;;;;10164409;29;20052;-83
2023/03/19 18:38:45;;;;;;;1.73;1.48;;;;;;;;;;10176708;29;20518;-82
2023/03/19 18:43:49;;;;;;;1.92;1.48;;;;;;;;;;10178634;29;20039;-86
2023/03/19 18:48:54;;;;;;;4.82;1.98;;;;;;;;;;10153278;29;20071;-84
2023/03/19 18:53:59;;;;;;;3.58;1.75;;;;;;;;;;10155539;29;20084;-85
2023/03/19 18:59:08;;;;;;;5.28;2.00;;;;;;;;;;10145248;29;20819;-82
2023/03/19 19:04:17;;;;;;;4.07;2.30;;;;;;;;;;10152740;29;20082;-82
2023/03/19 19:09:22;;;;;;;2.55;2.00;;;;;;;;;;10144644;29;20052;-82
2023/03/19 19:14:25;;;;;;;3.78;2.47;;;;;;;;;;10151515;29;20040;-82
2023/03/19 19:19:29;;;;;;;4.75;2.95;;;;;;;;;;10135480;29;20044;-83
2023/03/19 19:24:35;;;;;;;6.93;3.63;;;;;;;;;;10135031;29;20050;-83
2023/03/19 19:29:38;;;;;;;6.95;3.90;;;;;;;;;;10109213;29;20100;-82
2023/03/19 19:34:42;;;;;;;5.60;3.50;;;;;;;;;;10108577;29;20518;-83
2023/03/19 19:39:55;;;;;;;4.85;3.15;;;;;;;;;;10124706;29;20052;-83
2023/03/19 19:44:59;;;;;;;4.93;3.30;;;;;;;;;;10162984;29;20082;-82
2023/03/19 19:50:02;;;;;;;4.65;3.05;;;;;;;;;;10130165;29;20052;-83
2023/03/19 19:55:10;;;;;;;4.72;2.85;;;;;;;;;;10151123;29;20072;-82
2023/03/19 20:00:21;;;;;;;2.95;2.17;;;;;;;;;;10140548;29;20193;-81
2023/03/19 20:05:26;;;;;;;3.53;2.10;;;;;;;;;;10156661;29;20534;-88
2023/03/19 20:10:31;;;;;;;3.40;2.15;;;;;;;;;;10157314;29;20039;-84
2023/03/19 20:15:35;;;;;;;3.30;1.73;;;;;;;;;;10135332;29;20072;-82
2023/03/19 20:20:39;;;;;;;4.00;2.03;;;;;;;;;;10133253;29;20039;-81
2023/03/19 20:25:45;;;;;;;2.53;2.10;;;;;;;;;;10151875;29;20046;-82
2023/03/19 20:30:52;;;;;;;3.17;2.03;;;;;;;;;;10138261;29;20565;-82
2023/03/19 20:35:57;;;;;;;2.65;1.88;;;;;;;;;;10152436;29;20044;-84
2023/03/19 20:41:02;;;;;;;1.80;1.50;;;;;;;;;;10147682;29;20147;-84
2023/03/19 20:46:07;;;;;;;4.68;2.20;;;;;;;;;;10160011;29;20054;-84
2023/03/19 20:51:18;;;;;;;4.18;2.40;;;;;;;;;;10160140;29;20054;-86
2023/03/19 20:56:24;;;;;;;2.42;1.88;;;;;;;;;;10157338;29;20054;-84
2023/03/19 21:01:27;;;;;;;;;;;;;;;;;;10151730;29;20053;-84
2023/03/19 21:06:31;;;;;;;2.75;1.70;;;;;;;;;;10159049;29;20668;-81
2023/03/19 21:11:51;;;;;;;2.88;1.75;;;;;;;;;;10151339;29;20048;-82
2023/03/19 21:16:54;;;;;;;;;;;;;;;;;;10122426;29;20078;-81
2023/03/19 21:21:58;;;;;;;1.48;1.20;;;;;;;;;;10098773;29;20026;-81
2023/03/19 21:27:03;;;;;;;2.70;1.75;;;;;;;;;;10099555;29;20048;-81
2023/03/19 21:32:12;;;;;;;2.40;1.90;;;;;;;;;;10147331;29;20043;-82
2023/03/19 21:37:16;;;;;;;2.60;1.90;;;;;;;;;;10158484;29;20685;-82
2023/03/19 21:42:22;;;;;;;3.20;1.85;;;;;;;;;;10150219;29;20634;-82
2023/03/19 21:47:25;;;;;;;;;;;;;;;;;;10151014;29;20051;-82
2023/03/19 21:52:29;;;;;;;3.55;1.75;;;;;;;;;;10155317;29;19933;-82
2023/03/19 21:57:34;;;;;;;2.88;1.65;;;;;;;;;;10153722;29;20052;-82
2023/03/19 22:02:42;;;;;;;3.13;2.03;;;;;;;;;;10161524;29;20064;-85
2023/03/19 22:07:45;;;;;;;2.92;2.17;;;;;;;;;;10158271;29;20052;-84
2023/03/19 22:12:52;;;;;;;2.35;1.92;;;;;;;;;;10178242;29;20043;-85
2023/03/19 22:17:57;;;;;;;;;;;;;;;;;;10177785;29;20087;-84
2023/03/19 22:23:01;;;;;;;2.70;1.77;;;;;;;;;;10167197;29;19930;-84
2023/03/19 22:28:13;;;;;;;1.65;1.35;;;;;;;;;;10155861;29;20082;-87
2023/03/19 22:33:19;;;;;;;3.38;1.83;;;;;;;;;;10159139;29;20048;-88
2023/03/19 22:38:23;;;;;;;2.30;1.70;;;;;;;;;;10165897;29;20040;-89
2023/03/19 22:43:30;;;;;;;3.83;1.85;;;;;;;;;;10171913;29;20040;-85
2023/03/19 22:48:37;;;;;;;4.05;1.67;;;;;;;;;;10165696;29;20499;-85
2023/03/19 22:53:40;;;;;;;3.13;1.58;;;;;;;;;;10173701;29;20046;-84
2023/03/19 22:58:46;;;;;;;1.70;1.33;;;;;;;;;;10158557;29;20055;-81
2023/03/19 23:03:50;;;;;;;2.90;1.55;;;;;;;;;;10142125;29;20127;-81
2023/03/19 23:08:54;;;;;;;3.70;1.42;;;;;;;;;;10144158;29;20058;-82
2023/03/19 23:13:59;;;;;;;3.47;1.52;;;;;;;;;;10149583;29;20785;-81
2023/03/19 23:19:03;;;;;;;2.20;1.80;;;;;;;;;;10156391;29;20052;-81
2023/03/19 23:24:11;;;;;;;4.45;1.75;;;;;;;;;;10157046;29;20139;-81
2023/03/19 23:29:20;;;;;;;2.80;1.55;;;;;;;;;;10152698;29;20410;-81
2023/03/19 23:34:27;;;;;;;2.42;1.70;;;;;;;;;;10162952;29;20697;-82
2023/03/19 23:39:30;;;;;;;2.45;1.27;;;;;;;;;;10153582;29;20044;-82
2023/03/19 23:44:37;;;;;;;1.55;1.35;;;;;;;;;;10155100;29;20050;-82
2023/03/19 23:49:41;;;;;;;1.65;1.42;;;;;;;;;;10160537;29;20706;-81
2023/03/19 23:54:44;;;;;;;1.85;1.30;;;;;;;;;;10161288;29;20160;-82
2023/03/19 23:59:51;;;;;;;1.60;1.15;;;;;;;;;;10160150;29;20047;-81
